PRIVATE WETTERSTATION BILLIGHEIM-ALLFELD                       ZURCK
Wetterdaten: Freitag, 16.06.2017
Datum Zeit Temp. A. Temp. A. min Temp. A. max Feuchte A. Luftdruck Regen Wind Richtung Richtung Sonnenschein ET Solar Taupunkt Windchill Windben Empfang
16.06.2017 00:00 21,1 C 21,1 C 21,1 C 79 % 1013,4 hPa 0,0 l/m 11,3 km/h (2 Bft) W 270 0 min 0,025 mm 0 W/m 17,3 C 19,5 C 25,7 km/h (4 Bft) 97 %
16.06.2017 00:10 21,1 C 21,1 C 21,1 C 79 % 1013,7 hPa 0,0 l/m 9,7 km/h (2 Bft) W-SW 247 0 min 0,000 mm 0 W/m 17,3 C 19,9 C 29,0 km/h (5 Bft) 97 %
16.06.2017 00:20 21,0 C 21,0 C 21,1 C 80 % 1013,5 hPa 0,0 l/m 11,3 km/h (2 Bft) W 270 0 min 0,000 mm 0 W/m 17,4 C 19,4 C 27,4 km/h (4 Bft) 97 %
16.06.2017 00:30 20,9 C 20,9 C 21,0 C 81 % 1013,7 hPa 0,0 l/m 11,3 km/h (2 Bft) W 270 0 min 0,000 mm 0 W/m 17,5 C 19,3 C 29,0 km/h (5 Bft) 98 %
16.06.2017 00:40 20,9 C 20,8 C 20,9 C 82 % 1013,7 hPa 0,0 l/m 11,3 km/h (2 Bft) W 270 0 min 0,000 mm 0 W/m 17,7 C 19,3 C 30,6 km/h (5 Bft) 98 %
16.06.2017 00:50 20,8 C 20,8 C 20,9 C 82 % 1013,6 hPa 0,0 l/m 8,0 km/h (2 Bft) W-SW 247 0 min 0,000 mm 0 W/m 17,6 C 20,2 C 25,7 km/h (4 Bft) 98 %
16.06.2017 01:00 20,7 C 20,7 C 20,8 C 83 % 1013,8 hPa 0,0 l/m 11,3 km/h (2 Bft) W 270 0 min 0,051 mm 0 W/m 17,7 C 19,0 C 24,1 km/h (4 Bft) 97 %
16.06.2017 01:10 20,5 C 20,5 C 20,7 C 84 % 1013,7 hPa 0,0 l/m 12,9 km/h (3 Bft) W 270 0 min 0,000 mm 0 W/m 17,7 C 18,4 C 25,7 km/h (4 Bft) 97 %
16.06.2017 01:20 20,4 C 20,4 C 20,5 C 84 % 1013,9 hPa 0,0 l/m 11,3 km/h (2 Bft) W-NW 292 0 min 0,000 mm 0 W/m 17,6 C 18,7 C 29,0 km/h (5 Bft) 98 %
16.06.2017 01:30 20,2 C 20,2 C 20,4 C 85 % 1014,0 hPa 0,0 l/m 8,0 km/h (2 Bft) W-NW 292 0 min 0,000 mm 0 W/m 17,6 C 19,6 C 22,5 km/h (4 Bft) 97 %
16.06.2017 01:40 20,1 C 20,1 C 20,2 C 85 % 1013,9 hPa 0,0 l/m 11,3 km/h (2 Bft) W-NW 292 0 min 0,000 mm 0 W/m 17,5 C 18,3 C 25,7 km/h (4 Bft) 98 %
16.06.2017 01:50 20,0 C 20,0 C 20,1 C 86 % 1013,9 hPa 0,0 l/m 11,3 km/h (2 Bft) W 270 0 min 0,000 mm 0 W/m 17,6 C 18,2 C 25,7 km/h (4 Bft) 98 %
16.06.2017 02:00 19,9 C 19,9 C 20,0 C 87 % 1013,9 hPa 0,0 l/m 9,7 km/h (2 Bft) W 270 0 min 0,025 mm 0 W/m 17,7 C 18,6 C 24,1 km/h (4 Bft) 98 %
16.06.2017 02:10 19,8 C 19,8 C 19,9 C 87 % 1013,9 hPa 0,0 l/m 9,7 km/h (2 Bft) W 270 0 min 0,000 mm 0 W/m 17,6 C 18,5 C 20,9 km/h (4 Bft) 98 %
16.06.2017 02:20 19,7 C 19,7 C 19,8 C 87 % 1013,9 hPa 0,0 l/m 8,0 km/h (2 Bft) W 270 0 min 0,000 mm 0 W/m 17,5 C 19,0 C 19,3 km/h (3 Bft) 97 %
16.06.2017 02:30 19,6 C 19,6 C 19,7 C 88 % 1014,1 hPa 0,0 l/m 6,4 km/h (2 Bft) W 270 0 min 0,000 mm 0 W/m 17,6 C 19,6 C 16,1 km/h (3 Bft) 98 %
16.06.2017 02:40 19,4 C 19,4 C 19,6 C 88 % 1014,2 hPa 0,0 l/m 6,4 km/h (2 Bft) W 270 0 min 0,000 mm 0 W/m 17,4 C 19,4 C 16,1 km/h (3 Bft) 97 %
16.06.2017 02:50 19,3 C 19,3 C 19,4 C 88 % 1014,2 hPa 0,0 l/m 6,4 km/h (2 Bft) W 270 0 min 0,000 mm 0 W/m 17,3 C 19,3 C 16,1 km/h (3 Bft) 98 %
16.06.2017 03:00 19,1 C 19,1 C 19,3 C 89 % 1014,3 hPa 0,0 l/m 6,4 km/h (2 Bft) W 270 0 min 0,025 mm 0 W/m 17,2 C 19,1 C 14,5 km/h (3 Bft) 98 %
16.06.2017 03:10 19,0 C 19,0 C 19,1 C 89 % 1014,4 hPa 0,0 l/m 6,4 km/h (2 Bft) W 270 0 min 0,000 mm 0 W/m 17,1 C 19,0 C 17,7 km/h (3 Bft) 98 %
16.06.2017 03:20 18,9 C 18,9 C 19,0 C 89 % 1014,5 hPa 0,0 l/m 9,7 km/h (2 Bft) W 270 0 min 0,000 mm 0 W/m 17,0 C 17,5 C 20,9 km/h (4 Bft) 98 %
16.06.2017 03:30 18,8 C 18,8 C 18,9 C 89 % 1014,5 hPa 0,0 l/m 8,0 km/h (2 Bft) W 270 0 min 0,000 mm 0 W/m 16,9 C 18,1 C 19,3 km/h (3 Bft) 97 %
16.06.2017 03:40 18,7 C 18,7 C 18,8 C 89 % 1014,6 hPa 0,0 l/m 8,0 km/h (2 Bft) W 270 0 min 0,000 mm 0 W/m 16,8 C 18,0 C 17,7 km/h (3 Bft) 98 %
16.06.2017 03:50 18,6 C 18,6 C 18,7 C 89 % 1014,8 hPa 0,0 l/m 4,8 km/h (1 Bft) W 270 0 min 0,000 mm 0 W/m 16,7 C 18,6 C 16,1 km/h (3 Bft) 97 %
16.06.2017 04:00 18,4 C 18,4 C 18,6 C 89 % 1014,7 hPa 0,0 l/m 4,8 km/h (1 Bft) W 270 0 min 0,025 mm 0 W/m 16,6 C 18,4 C 12,9 km/h (3 Bft) 98 %
16.06.2017 04:10 18,3 C 18,3 C 18,4 C 89 % 1014,7 hPa 0,0 l/m 4,8 km/h (1 Bft) W-NW 292 0 min 0,000 mm 0 W/m 16,5 C 18,3 C 14,5 km/h (3 Bft) 98 %
16.06.2017 04:20 18,1 C 18,1 C 18,3 C 88 % 1014,8 hPa 0,0 l/m 4,8 km/h (1 Bft) W 270 0 min 0,000 mm 0 W/m 16,1 C 18,1 C 19,3 km/h (3 Bft) 97 %
16.06.2017 04:30 18,0 C 17,9 C 18,1 C 88 % 1014,9 hPa 0,0 l/m 3,2 km/h (1 Bft) W 270 0 min 0,000 mm 0 W/m 16,0 C 18,0 C 8,0 km/h (2 Bft) 98 %
16.06.2017 04:40 17,7 C 17,7 C 17,9 C 87 % 1014,8 hPa 0,0 l/m 4,8 km/h (1 Bft) W-NW 292 0 min 0,000 mm 0 W/m 15,5 C 17,7 C 11,3 km/h (2 Bft) 97 %
16.06.2017 04:50 17,7 C 17,7 C 17,7 C 86 % 1015,0 hPa 0,0 l/m 8,0 km/h (2 Bft) W-NW 292 0 min 0,000 mm 0 W/m 15,3 C 16,9 C 17,7 km/h (3 Bft) 98 %
16.06.2017 05:00 17,6 C 17,6 C 17,7 C 86 % 1015,1 hPa 0,0 l/m 6,4 km/h (2 Bft) W-NW 292 0 min 0,025 mm 0 W/m 15,2 C 17,6 C 16,1 km/h (3 Bft) 97 %
16.06.2017 05:10 17,6 C 17,6 C 17,6 C 85 % 1015,2 hPa 0,0 l/m 6,4 km/h (2 Bft) W-NW 292 0 min 0,000 mm 0 W/m 15,0 C 17,6 C 16,1 km/h (3 Bft) 96 %
16.06.2017 05:20 17,5 C 17,5 C 17,6 C 84 % 1015,3 hPa 0,0 l/m 3,2 km/h (1 Bft) W-NW 292 0 min 0,000 mm 0 W/m 14,8 C 17,5 C 11,3 km/h (2 Bft) 89 %
16.06.2017 05:30 17,3 C 17,3 C 17,5 C 83 % 1015,4 hPa 0,0 l/m 3,2 km/h (1 Bft) W 270 0 min 0,000 mm 5 W/m 14,4 C 17,3 C 8,0 km/h (2 Bft) 98 %
16.06.2017 05:40 17,2 C 17,2 C 17,3 C 83 % 1015,5 hPa 0,0 l/m 1,6 km/h (1 Bft) W 270 0 min 0,000 mm 9 W/m 14,3 C 17,2 C 8,0 km/h (2 Bft) 98 %
16.06.2017 05:50 16,9 C 16,9 C 17,1 C 84 % 1015,5 hPa 0,0 l/m 1,6 km/h (1 Bft) W 270 0 min 0,000 mm 26 W/m 14,2 C 16,9 C 6,4 km/h (2 Bft) 98 %
16.06.2017 06:00 16,9 C 16,9 C 16,9 C 85 % 1015,6 hPa 0,0 l/m 1,6 km/h (1 Bft) W 270 0 min 0,025 mm 35 W/m 14,4 C 16,9 C 6,4 km/h (2 Bft) 98 %
16.06.2017 06:10 16,8 C 16,8 C 16,9 C 86 % 1015,7 hPa 0,0 l/m 1,6 km/h (1 Bft) W-NW 292 0 min 0,000 mm 33 W/m 14,4 C 16,8 C 6,4 km/h (2 Bft) 97 %
16.06.2017 06:20 16,9 C 16,8 C 16,9 C 87 % 1015,8 hPa 0,0 l/m 3,2 km/h (1 Bft) W 270 0 min 0,000 mm 42 W/m 14,7 C 16,9 C 8,0 km/h (2 Bft) 98 %
16.06.2017 06:30 16,9 C 16,9 C 16,9 C 87 % 1015,8 hPa 0,0 l/m 3,2 km/h (1 Bft) W 270 0 min 0,000 mm 62 W/m 14,7 C 16,9 C 9,7 km/h (2 Bft) 97 %
16.06.2017 06:40 16,9 C 16,9 C 16,9 C 87 % 1015,8 hPa 0,0 l/m 0,0 km/h (0 Bft) W 270 0 min 0,000 mm 76 W/m 14,7 C 16,9 C 6,4 km/h (2 Bft) 98 %
16.06.2017 06:50 16,9 C 16,9 C 16,9 C 87 % 1015,9 hPa 0,0 l/m 3,2 km/h (1 Bft) W 270 0 min 0,000 mm 74 W/m 14,7 C 16,9 C 11,3 km/h (2 Bft) 98 %
16.06.2017 07:00 17,1 C 16,9 C 17,1 C 86 % 1016,0 hPa 0,0 l/m 4,8 km/h (1 Bft) W 270 0 min 0,025 mm 95 W/m 14,7 C 17,1 C 11,3 km/h (2 Bft) 98 %
16.06.2017 07:10 17,2 C 17,1 C 17,2 C 86 % 1016,1 hPa 0,0 l/m 3,2 km/h (1 Bft) W-SW 247 0 min 0,000 mm 97 W/m 14,8 C 17,2 C 16,1 km/h (3 Bft) 97 %
16.06.2017 07:20 17,2 C 17,2 C 17,2 C 85 % 1016,3 hPa 0,0 l/m 6,4 km/h (2 Bft) W-SW 247 0 min 0,000 mm 104 W/m 14,7 C 17,2 C 19,3 km/h (3 Bft) 97 %
16.06.2017 07:30 17,2 C 17,2 C 17,3 C 84 % 1016,4 hPa 0,0 l/m 6,4 km/h (2 Bft) W 270 0 min 0,000 mm 76 W/m 14,5 C 17,2 C 20,9 km/h (4 Bft) 98 %
16.06.2017 07:40 17,2 C 17,2 C 17,3 C 83 % 1016,5 hPa 0,0 l/m 8,0 km/h (2 Bft) W-SW 247 0 min 0,000 mm 74 W/m 14,3 C 16,4 C 19,3 km/h (3 Bft) 98 %
16.06.2017 07:50 17,1 C 17,1 C 17,2 C 82 % 1016,6 hPa 0,0 l/m 8,0 km/h (2 Bft) W 270 0 min 0,000 mm 76 W/m 14,0 C 16,3 C 20,9 km/h (4 Bft) 97 %
16.06.2017 08:00 17,0 C 17,0 C 17,1 C 82 % 1016,7 hPa 0,0 l/m 8,0 km/h (2 Bft) W 270 0 min 0,051 mm 49 W/m 13,9 C 16,2 C 20,9 km/h (4 Bft) 98 %
16.06.2017 08:10 17,0 C 17,0 C 17,1 C 81 % 1016,7 hPa 0,0 l/m 8,0 km/h (2 Bft) W-SW 247 0 min 0,000 mm 46 W/m 13,7 C 16,2 C 19,3 km/h (3 Bft) 97 %
16.06.2017 08:20 17,2 C 17,0 C 17,2 C 79 % 1016,9 hPa 0,0 l/m 9,7 km/h (2 Bft) W-SW 247 10 min 0,000 mm 427 W/m 13,5 C 15,7 C 24,1 km/h (4 Bft) 98 %
16.06.2017 08:30 17,8 C 17,2 C 17,8 C 79 % 1017,0 hPa 0,0 l/m 9,7 km/h (2 Bft) W-SW 247 10 min 0,000 mm 489 W/m 14,1 C 16,3 C 24,1 km/h (4 Bft) 98 %
16.06.2017 08:40 18,5 C 17,8 C 18,5 C 71 % 1016,9 hPa 0,0 l/m 9,7 km/h (2 Bft) W 270 10 min 0,000 mm 564 W/m 13,1 C 17,1 C 24,1 km/h (4 Bft) 98 %
16.06.2017 08:50 18,5 C 18,4 C 18,6 C 72 % 1017,0 hPa 0,0 l/m 12,9 km/h (3 Bft) W 270 10 min 0,000 mm 587 W/m 13,4 C 16,0 C 25,7 km/h (4 Bft) 98 %
16.06.2017 09:00 18,4 C 18,4 C 18,6 C 70 % 1017,1 hPa 0,0 l/m 8,0 km/h (2 Bft) W-SW 247 10 min 0,178 mm 202 W/m 12,8 C 17,7 C 20,9 km/h (4 Bft) 98 %
16.06.2017 09:10 18,2 C 18,2 C 18,4 C 70 % 1017,3 hPa 0,0 l/m 9,7 km/h (2 Bft) W-SW 247 10 min 0,000 mm 206 W/m 12,6 C 16,8 C 22,5 km/h (4 Bft) 98 %
16.06.2017 09:20 18,7 C 18,2 C 18,7 C 72 % 1017,4 hPa 0,0 l/m 11,3 km/h (2 Bft) W-SW 247 10 min 0,000 mm 802 W/m 13,5 C 16,8 C 25,7 km/h (4 Bft) 98 %
16.06.2017 09:30 19,4 C 18,7 C 19,4 C 67 % 1017,4 hPa 0,0 l/m 8,0 km/h (2 Bft) W 270 10 min 0,000 mm 809 W/m 13,1 C 18,7 C 19,3 km/h (3 Bft) 98 %
16.06.2017 09:40 20,0 C 19,4 C 20,0 C 65 % 1017,6 hPa 0,0 l/m 9,7 km/h (2 Bft) W-SW 247 10 min 0,000 mm 809 W/m 13,2 C 18,7 C 25,7 km/h (4 Bft) 98 %
16.06.2017 09:50 20,1 C 20,1 C 20,2 C 65 % 1017,8 hPa 0,0 l/m 8,0 km/h (2 Bft) W 270 10 min 0,000 mm 717 W/m 13,3 C 19,5 C 20,9 km/h (4 Bft) 98 %
16.06.2017 10:00 20,3 C 20,1 C 20,3 C 63 % 1017,7 hPa 0,0 l/m 8,0 km/h (2 Bft) W-SW 247 10 min 0,330 mm 766 W/m 13,0 C 19,7 C 25,7 km/h (4 Bft) 98 %
16.06.2017 10:10 20,2 C 20,2 C 20,5 C 62 % 1017,8 hPa 0,0 l/m 12,9 km/h (3 Bft) W 270 10 min 0,000 mm 882 W/m 12,7 C 18,0 C 27,4 km/h (4 Bft) 98 %
16.06.2017 10:20 19,7 C 19,7 C 20,2 C 63 % 1018,0 hPa 0,0 l/m 11,3 km/h (2 Bft) W 270 10 min 0,000 mm 877 W/m 12,5 C 17,9 C 24,1 km/h (4 Bft) 98 %
16.06.2017 10:30 20,3 C 19,7 C 20,3 C 64 % 1018,3 hPa 0,0 l/m 11,3 km/h (2 Bft) W 270 10 min 0,000 mm 867 W/m 13,3 C 18,6 C 22,5 km/h (4 Bft) 98 %
16.06.2017 10:40 20,6 C 20,4 C 20,7 C 62 % 1018,0 hPa 0,0 l/m 8,0 km/h (2 Bft) W 270 10 min 0,000 mm 918 W/m 13,1 C 20,0 C 22,5 km/h (4 Bft) 98 %
16.06.2017 10:50 20,9 C 20,6 C 20,9 C 64 % 1018,0 hPa 0,0 l/m 4,8 km/h (1 Bft) W 270 10 min 0,000 mm 893 W/m 13,8 C 20,9 C 20,9 km/h (4 Bft) 98 %
16.06.2017 11:00 21,2 C 21,0 C 21,2 C 61 % 1018,0 hPa 0,0 l/m 8,0 km/h (2 Bft) W-SW 247 10 min 0,432 mm 846 W/m 13,4 C 20,6 C 25,7 km/h (4 Bft) 98 %
16.06.2017 11:10 21,6 C 21,2 C 21,6 C 64 % 1018,0 hPa 0,0 l/m 6,4 km/h (2 Bft) SW 225 10 min 0,000 mm 881 W/m 14,5 C 21,6 C 19,3 km/h (3 Bft) 98 %
16.06.2017 11:20 21,9 C 21,7 C 22,0 C 58 % 1018,1 hPa 0,0 l/m 6,4 km/h (2 Bft) W-NW 292 10 min 0,000 mm 925 W/m 13,3 C 21,9 C 20,9 km/h (4 Bft) 97 %
16.06.2017 11:30 21,4 C 21,3 C 21,9 C 61 % 1018,3 hPa 0,0 l/m 11,3 km/h (2 Bft) W 270 10 min 0,000 mm 1020 W/m 13,6 C 19,8 C 22,5 km/h (4 Bft) 98 %
16.06.2017 11:40 21,4 C 21,4 C 21,5 C 60 % 1018,3 hPa 0,0 l/m 9,7 km/h (2 Bft) W 270 10 min 0,000 mm 1041 W/m 13,3 C 20,3 C 22,5 km/h (4 Bft) 97 %
16.06.2017 11:50 21,6 C 21,4 C 21,6 C 61 % 1018,3 hPa 0,0 l/m 9,7 km/h (2 Bft) W 270 10 min 0,000 mm 1048 W/m 13,7 C 20,5 C 20,9 km/h (4 Bft) 98 %
16.06.2017 12:00 21,4 C 21,4 C 21,6 C 62 % 1018,2 hPa 0,0 l/m 12,9 km/h (3 Bft) S-SW 202 10 min 0,483 mm 1134 W/m 13,8 C 19,4 C 27,4 km/h (4 Bft) 97 %
16.06.2017 12:10 21,5 C 21,4 C 21,6 C 62 % 1018,2 hPa 0,0 l/m 8,0 km/h (2 Bft) W 270 10 min 0,000 mm 1125 W/m 13,9 C 20,9 C 22,5 km/h (4 Bft) 98 %
16.06.2017 12:20 21,3 C 21,3 C 21,4 C 59 % 1018,2 hPa 0,0 l/m 12,9 km/h (3 Bft) SW 225 10 min 0,000 mm 1176 W/m 13,0 C 19,3 C 27,4 km/h (4 Bft) 98 %
16.06.2017 12:30 21,5 C 21,1 C 21,5 C 55 % 1018,2 hPa 0,0 l/m 9,7 km/h (2 Bft) W-SW 247 10 min 0,000 mm 1181 W/m 12,1 C 20,4 C 24,1 km/h (4 Bft) 98 %
16.06.2017 12:40 22,0 C 21,5 C 22,0 C 60 % 1018,0 hPa 0,0 l/m 4,8 km/h (1 Bft) W-NW 292 10 min 0,000 mm 1085 W/m 13,9 C 22,0 C 24,1 km/h (4 Bft) 97 %
16.06.2017 12:50 22,3 C 22,0 C 22,3 C 56 % 1018,2 hPa 0,0 l/m 11,3 km/h (2 Bft) W 270 10 min 0,000 mm 1028 W/m 13,1 C 20,8 C 25,7 km/h (4 Bft) 97 %
16.06.2017 13:00 22,3 C 22,3 C 22,6 C 52 % 1018,3 hPa 0,0 l/m 14,5 km/h (3 Bft) W 270 10 min 0,457 mm 1192 W/m 12,0 C 20,1 C 30,6 km/h (5 Bft) 98 %
16.06.2017 13:10 22,3 C 22,2 C 22,3 C 53 % 1018,4 hPa 0,0 l/m 12,9 km/h (3 Bft) W-SW 247 10 min 0,000 mm 1195 W/m 12,2 C 20,5 C 27,4 km/h (4 Bft) 98 %
16.06.2017 13:20 22,3 C 22,3 C 22,4 C 52 % 1018,3 hPa 0,0 l/m 11,3 km/h (2 Bft) W-NW 292 10 min 0,000 mm 1107 W/m 12,0 C 20,8 C 27,4 km/h (4 Bft) 98 %
16.06.2017 13:30 22,2 C 22,1 C 22,3 C 55 % 1018,3 hPa 0,0 l/m 11,3 km/h (2 Bft) W-SW 247 10 min 0,000 mm 1185 W/m 12,7 C 20,7 C 25,7 km/h (4 Bft) 97 %
16.06.2017 13:40 22,3 C 22,2 C 22,3 C 57 % 1018,4 hPa 0,0 l/m 9,7 km/h (2 Bft) W-SW 247 10 min 0,000 mm 1102 W/m 13,4 C 21,3 C 30,6 km/h (5 Bft) 97 %
16.06.2017 13:50 22,3 C 22,3 C 22,5 C 53 % 1018,4 hPa 0,0 l/m 9,7 km/h (2 Bft) W 270 10 min 0,000 mm 661 W/m 12,2 C 21,3 C 25,7 km/h (4 Bft) 97 %
16.06.2017 14:00 22,1 C 22,1 C 22,3 C 53 % 1018,3 hPa 0,0 l/m 12,9 km/h (3 Bft) W-NW 292 10 min 0,457 mm 1009 W/m 12,1 C 20,2 C 27,4 km/h (4 Bft) 98 %
16.06.2017 14:10 22,2 C 22,0 C 22,2 C 54 % 1018,2 hPa 0,0 l/m 9,7 km/h (2 Bft) W 270 10 min 0,000 mm 1051 W/m 12,4 C 21,2 C 24,1 km/h (4 Bft) 98 %
16.06.2017 14:20 22,4 C 22,2 C 22,5 C 52 % 1018,2 hPa 0,0 l/m 14,5 km/h (3 Bft) W 270 10 min 0,000 mm 1078 W/m 12,1 C 20,3 C 27,4 km/h (4 Bft) 98 %
16.06.2017 14:30 22,4 C 22,3 C 22,4 C 53 % 1018,4 hPa 0,0 l/m 12,9 km/h (3 Bft) W-NW 292 10 min 0,000 mm 366 W/m 12,3 C 20,6 C 27,4 km/h (4 Bft) 98 %
16.06.2017 14:40 22,7 C 22,4 C 22,7 C 50 % 1018,4 hPa 0,0 l/m 12,9 km/h (3 Bft) W 270 10 min 0,000 mm 1034 W/m 11,7 C 20,9 C 29,0 km/h (5 Bft) 98 %
16.06.2017 14:50 23,2 C 22,7 C 23,2 C 49 % 1018,4 hPa 0,0 l/m 14,5 km/h (3 Bft) W-NW 292 10 min 0,000 mm 1034 W/m 11,9 C 21,2 C 32,2 km/h (5 Bft) 98 %
16.06.2017 15:00 22,9 C 22,9 C 23,1 C 50 % 1018,4 hPa 0,0 l/m 11,3 km/h (2 Bft) W-NW 292 10 min 0,508 mm 1039 W/m 11,9 C 21,5 C 22,5 km/h (4 Bft) 96 %
16.06.2017 15:10 22,7 C 22,7 C 22,9 C 49 % 1018,5 hPa 0,0 l/m 16,1 km/h (3 Bft) W-NW 292 10 min 0,000 mm 1076 W/m 11,4 C 20,3 C 29,0 km/h (5 Bft) 98 %
16.06.2017 15:20 22,3 C 22,3 C 22,7 C 51 % 1018,4 hPa 0,0 l/m 12,9 km/h (3 Bft) W-NW 292 10 min 0,000 mm 295 W/m 11,7 C 20,5 C 25,7 km/h (4 Bft) 98 %
16.06.2017 15:30 21,8 C 21,8 C 22,3 C 50 % 1018,4 hPa 0,0 l/m 12,9 km/h (3 Bft) W-NW 292 10 min 0,000 mm 209 W/m 10,9 C 19,9 C 24,1 km/h (4 Bft) 98 %
16.06.2017 15:40 21,9 C 21,7 C 21,9 C 50 % 1018,3 hPa 0,0 l/m 14,5 km/h (3 Bft) NW 315 10 min 0,000 mm 445 W/m 11,0 C 19,7 C 32,2 km/h (5 Bft) 98 %
16.06.2017 15:50 21,9 C 21,9 C 21,9 C 51 % 1018,5 hPa 0,0 l/m 12,9 km/h (3 Bft) W-NW 292 10 min 0,000 mm 330 W/m 11,3 C 20,0 C 27,4 km/h (4 Bft) 98 %
16.06.2017 16:00 22,1 C 21,9 C 22,1 C 52 % 1018,3 hPa 0,0 l/m 14,5 km/h (3 Bft) NW 315 10 min 0,279 mm 450 W/m 11,8 C 19,9 C 24,1 km/h (4 Bft) 97 %
16.06.2017 16:10 22,1 C 22,1 C 22,2 C 51 % 1018,4 hPa 0,0 l/m 11,3 km/h (2 Bft) W-NW 292 10 min 0,000 mm 357 W/m 11,5 C 20,6 C 24,1 km/h (4 Bft) 97 %
16.06.2017 16:20 22,3 C 22,1 C 22,3 C 54 % 1018,5 hPa 0,0 l/m 11,3 km/h (2 Bft) W-NW 292 10 min 0,000 mm 403 W/m 12,5 C 20,8 C 22,5 km/h (4 Bft) 98 %
16.06.2017 16:30 22,4 C 22,3 C 22,4 C 52 % 1018,4 hPa 0,0 l/m 9,7 km/h (2 Bft) W-NW 292 10 min 0,000 mm 413 W/m 12,1 C 21,4 C 22,5 km/h (4 Bft) 98 %
16.06.2017 16:40 22,3 C 22,3 C 22,4 C 52 % 1018,5 hPa 0,0 l/m 14,5 km/h (3 Bft) W-NW 292 10 min 0,000 mm 413 W/m 12,0 C 20,1 C 29,0 km/h (5 Bft) 98 %
16.06.2017 16:50 22,2 C 22,2 C 22,3 C 50 % 1018,7 hPa 0,0 l/m 16,1 km/h (3 Bft) NW 315 10 min 0,000 mm 364 W/m 11,3 C 19,7 C 29,0 km/h (5 Bft) 98 %
16.06.2017 17:00 21,9 C 21,9 C 22,1 C 50 % 1018,8 hPa 0,0 l/m 14,5 km/h (3 Bft) NW 315 10 min 0,279 mm 316 W/m 11,0 C 19,7 C 32,2 km/h (5 Bft) 98 %
16.06.2017 17:10 21,8 C 21,8 C 22,1 C 51 % 1018,9 hPa 0,0 l/m 18,4 km/h (3 Bft) NW 321 10 min 0,000 mm 274 W/m 11,2 C 18,8 C 24,1 km/h (4 Bft) 99 %
16.06.2017 17:20 21,7 C 21,7 C 21,8 C 51 % 1018,8 hPa 0,0 l/m 11,5 km/h (2 Bft) W-SW 258 10 min 0,000 mm 227 W/m 11,1 C 20,1 C 22,5 km/h (4 Bft) 100 %
16.06.2017 17:30 21,4 C 21,4 C 21,7 C 50 % 1018,9 hPa 0,0 l/m 16,4 km/h (3 Bft) NW 305 10 min 0,000 mm 220 W/m 10,5 C 18,7 C 37,0 km/h (5 Bft) 100 %
16.06.2017 17:40 21,2 C 21,2 C 21,4 C 52 % 1018,9 hPa 0,0 l/m 13,7 km/h (3 Bft) NW 310 10 min 0,000 mm 218 W/m 10,9 C 19,0 C 29,0 km/h (5 Bft) 100 %
16.06.2017 17:50 21,3 C 21,2 C 21,3 C 51 % 1018,9 hPa 0,0 l/m 14,4 km/h (3 Bft) NW 317 10 min 0,000 mm 239 W/m 10,7 C 19,0 C 25,7 km/h (4 Bft) 99 %
16.06.2017 18:00 21,2 C 21,2 C 21,3 C 51 % 1019,0 hPa 0,0 l/m 14,6 km/h (3 Bft) W-NW 302 10 min 0,000 mm 209 W/m 10,7 C 18,8 C 33,8 km/h (5 Bft) 99 %
16.06.2017 18:10 21,1 C 21,1 C 21,2 C 50 % 1019,2 hPa 0,0 l/m 15,4 km/h (3 Bft) W 277 10 min 0,232 mm 216 W/m 10,3 C 18,5 C 29,0 km/h (5 Bft) 100 %
16.06.2017 18:20 21,1 C 21,1 C 21,1 C 51 % 1019,1 hPa 0,0 l/m 13,9 km/h (3 Bft) NW 317 10 min 0,000 mm 214 W/m 10,6 C 18,8 C 25,7 km/h (4 Bft) 100 %
16.06.2017 18:30 20,9 C 20,9 C 21,1 C 52 % 1019,2 hPa 0,0 l/m 17,5 km/h (3 Bft) NW 323 10 min 0,000 mm 178 W/m 10,7 C 17,8 C 32,2 km/h (5 Bft) 100 %
16.06.2017 18:40 20,8 C 20,8 C 20,9 C 53 % 1019,3 hPa 0,0 l/m 15,4 km/h (3 Bft) N-NW 329 10 min 0,000 mm 171 W/m 10,9 C 18,1 C 29,0 km/h (5 Bft) 99 %
16.06.2017 18:50 20,6 C 20,6 C 20,8 C 53 % 1019,5 hPa 0,0 l/m 15,4 km/h (3 Bft) NW 315 10 min 0,000 mm 163 W/m 10,7 C 17,9 C 30,6 km/h (5 Bft) 100 %
16.06.2017 19:00 20,4 C 20,4 C 20,6 C 53 % 1019,5 hPa 0,0 l/m 11,0 km/h (2 Bft) W-NW 299 0 min 0,228 mm 144 W/m 10,5 C 18,8 C 22,5 km/h (4 Bft) 99 %
16.06.2017 19:10 20,3 C 20,3 C 20,4 C 54 % 1019,6 hPa 0,0 l/m 10,6 km/h (2 Bft) W-NW 287 0 min 0,000 mm 132 W/m 10,7 C 18,8 C 22,5 km/h (4 Bft) 100 %
16.06.2017 19:20 20,2 C 20,2 C 20,3 C 55 % 1019,7 hPa 0,0 l/m 9,8 km/h (2 Bft) NW 320 0 min 0,000 mm 121 W/m 10,9 C 18,9 C 25,7 km/h (4 Bft) 100 %
16.06.2017 19:30 20,1 C 20,1 C 20,2 C 57 % 1019,8 hPa 0,0 l/m 7,8 km/h (2 Bft) W-NW 303 0 min 0,000 mm 151 W/m 11,3 C 19,5 C 17,7 km/h (3 Bft) 99 %
16.06.2017 19:40 20,0 C 20,0 C 20,1 C 58 % 1019,9 hPa 0,0 l/m 8,0 km/h (2 Bft) NW 319 0 min 0,000 mm 135 W/m 11,5 C 19,4 C 16,1 km/h (3 Bft) 99 %
16.06.2017 19:50 19,9 C 19,9 C 20,0 C 57 % 1020,0 hPa 0,0 l/m 9,5 km/h (2 Bft) NW 319 0 min 0,000 mm 98 W/m 11,1 C 18,7 C 22,5 km/h (4 Bft) 99 %
16.06.2017 20:00 19,7 C 19,7 C 19,9 C 57 % 1020,0 hPa 0,0 l/m 8,9 km/h (2 Bft) W-NW 291 0 min 0,127 mm 84 W/m 10,9 C 18,7 C 20,9 km/h (4 Bft) 100 %
16.06.2017 20:10 19,4 C 19,4 C 19,7 C 57 % 1020,1 hPa 0,0 l/m 10,5 km/h (2 Bft) NW 304 0 min 0,000 mm 70 W/m 10,7 C 17,8 C 20,9 km/h (4 Bft) 100 %
16.06.2017 20:20 19,2 C 19,2 C 19,4 C 59 % 1020,2 hPa 0,0 l/m 7,5 km/h (2 Bft) NW 316 0 min 0,000 mm 46 W/m 11,0 C 18,7 C 17,7 km/h (3 Bft) 100 %
16.06.2017 20:30 19,0 C 19,0 C 19,2 C 59 % 1020,3 hPa 0,0 l/m 4,7 km/h (1 Bft) NW 314 0 min 0,000 mm 40 W/m 10,8 C 19,0 C 8,0 km/h (2 Bft) 99 %
16.06.2017 20:40 18,7 C 18,7 C 19,0 C 61 % 1020,4 hPa 0,0 l/m 4,0 km/h (1 Bft) NW 315 0 min 0,000 mm 33 W/m 11,0 C 18,7 C 9,7 km/h (2 Bft) 100 %
16.06.2017 20:50 18,4 C 18,4 C 18,7 C 60 % 1020,5 hPa 0,0 l/m 6,6 km/h (2 Bft) W-NW 293 0 min 0,000 mm 25 W/m 10,5 C 18,3 C 20,9 km/h (4 Bft) 98 %
16.06.2017 21:00 18,3 C 18,3 C 18,4 C 60 % 1020,7 hPa 0,0 l/m 8,0 km/h (2 Bft) NW 316 0 min 0,076 mm 16 W/m 10,4 C 17,6 C 19,3 km/h (3 Bft) 100 %
16.06.2017 21:10 18,2 C 18,2 C 18,3 C 60 % 1020,8 hPa 0,0 l/m 6,4 km/h (2 Bft) NW 315 0 min 0,000 mm 16 W/m 10,3 C 18,2 C 16,1 km/h (3 Bft) 97 %
16.06.2017 21:20 18,0 C 18,0 C 18,2 C 60 % 1020,9 hPa 0,0 l/m 6,4 km/h (2 Bft) NW 315 0 min 0,000 mm 9 W/m 10,1 C 18,0 C 16,1 km/h (3 Bft) 98 %
16.06.2017 21:30 17,8 C 17,8 C 18,0 C 60 % 1021,0 hPa 0,0 l/m 8,0 km/h (2 Bft) NW 315 0 min 0,000 mm 7 W/m 9,9 C 17,0 C 17,7 km/h (3 Bft) 97 %
16.06.2017 21:40 17,7 C 17,7 C 17,8 C 60 % 1021,0 hPa 0,0 l/m 6,4 km/h (2 Bft) NW 315 0 min 0,000 mm 0 W/m 9,8 C 17,7 C 17,7 km/h (3 Bft) 97 %
16.06.2017 21:50 17,6 C 17,6 C 17,7 C 61 % 1021,0 hPa 0,0 l/m 6,4 km/h (2 Bft) NW 315 0 min 0,000 mm 0 W/m 10,0 C 17,6 C 14,5 km/h (3 Bft) 97 %
16.06.2017 22:00 17,4 C 17,4 C 17,6 C 62 % 1021,3 hPa 0,0 l/m 4,8 km/h (1 Bft) NW 315 0 min 0,051 mm 0 W/m 10,0 C 17,4 C 8,0 km/h (2 Bft) 98 %
16.06.2017 22:10 17,2 C 17,2 C 17,4 C 62 % 1021,4 hPa 0,0 l/m 3,2 km/h (1 Bft) NW 315 0 min 0,000 mm 0 W/m 9,9 C 17,2 C 6,4 km/h (2 Bft) 98 %
16.06.2017 22:20 17,0 C 17,0 C 17,2 C 64 % 1021,4 hPa 0,0 l/m 1,6 km/h (1 Bft) N-NW 337 0 min 0,000 mm 0 W/m 10,1 C 17,0 C 6,4 km/h (2 Bft) 97 %
16.06.2017 22:30 16,7 C 16,7 C 17,0 C 65 % 1021,5 hPa 0,0 l/m 3,2 km/h (1 Bft) N-NW 337 0 min 0,000 mm 0 W/m 10,1 C 16,7 C 9,7 km/h (2 Bft) 98 %
16.06.2017 22:40 16,4 C 16,4 C 16,7 C 66 % 1021,7 hPa 0,0 l/m 1,6 km/h (1 Bft) N-NW 337 0 min 0,000 mm 0 W/m 10,0 C 16,4 C 6,4 km/h (2 Bft) 97 %
16.06.2017 22:50 16,2 C 16,2 C 16,4 C 67 % 1021,8 hPa 0,0 l/m 3,2 km/h (1 Bft) N-NW 337 0 min 0,000 mm 0 W/m 10,1 C 16,2 C 6,4 km/h (2 Bft) 98 %
16.06.2017 23:00 16,1 C 16,1 C 16,2 C 68 % 1022,0 hPa 0,0 l/m 3,2 km/h (1 Bft) N-NW 337 0 min 0,025 mm 0 W/m 10,2 C 16,1 C 6,4 km/h (2 Bft) 98 %
16.06.2017 23:10 15,9 C 15,9 C 16,1 C 69 % 1022,1 hPa 0,0 l/m 1,6 km/h (1 Bft) NW 315 0 min 0,000 mm 0 W/m 10,2 C 15,9 C 9,7 km/h (2 Bft) 97 %
16.06.2017 23:20 15,7 C 15,7 C 15,9 C 69 % 1022,3 hPa 0,0 l/m 3,2 km/h (1 Bft) NW 315 0 min 0,000 mm 0 W/m 10,0 C 15,7 C 8,0 km/h (2 Bft) 98 %
16.06.2017 23:30 15,6 C 15,5 C 15,7 C 69 % 1022,4 hPa 0,0 l/m 3,2 km/h (1 Bft) NW 315 0 min 0,000 mm 0 W/m 9,9 C 15,6 C 6,4 km/h (2 Bft) 98 %
16.06.2017 23:40 15,3 C 15,3 C 15,5 C 71 % 1022,4 hPa 0,0 l/m 1,6 km/h (1 Bft) NW 315 0 min 0,000 mm 0 W/m 10,1 C 15,3 C 4,8 km/h (1 Bft) 99 %
16.06.2017 23:50 15,1 C 15,1 C 15,3 C 73 % 1022,5 hPa 0,0 l/m 0,0 km/h (0 Bft) NW 315 0 min 0,000 mm 0 W/m 10,3 C 15,1 C 1,6 km/h (1 Bft) 99 %
_ Min-Zeit 23:50 23:50 23:50 14:50 00:00 - 06:40 - - - - - 21:40 23:50 23:50 05:20
Minimum _ 15,1 C 15,1 C 15,3 C 49 % 1013,4 hPa - 0,0 km/h (0 Bft) - - - - - 9,8 C 15,1 C 1,6 km/h (1 Bft) 89 %
_ Max-Zeit 14:50 15:00 14:50 03:00 23:50 00:00 17:10 - - 08:20 15:00 13:10 00:40 12:40 17:30 17:20
Maximum _ 23,2 C 22,9 C 23,2 C 89 % 1022,5 hPa 0,0 l/m 18,4 km/h
NW (3 Bft)
- - 10 min 0,508 mm 1195 W/m 17,7 C 22,0 C 37,0 km/h
W-NW (5 Bft)
100 %
Durchschnitt _ 19,6 C 19,5 C 19,7 C 68 % 1017,6 hPa #0,0 l/m 8,7 km/h (2 Bft) W - #10:40 h #4,419 mm 473 W/m 13,2 C 18,6 C 20,5 km/h (4 Bft) 98 %
PRIVATE WETTERSTATION BILLIGHEIM-ALLFELD - www.neckar-odenwald-wetter.de - Holger Sonntag